Portland, Oregon
Traffic Map
Current Weather Conditions
Portland, Oregon
Few Clouds
Few Clouds
14°
Feels Like: 14°
Wind Chill: 14° Ceiling: Unl
Heat Index: 14° Visibility: 10mi
Dew Point: Wind: 0mph
Humidity: 69% Direction: ° ()
Pressure: 30.36in Gusts: 0mph
Raw Report DataKPDX 250453Z 00000KT 10SM FEW100 14/08 A3036 RMK AO2 SLP280 T01390083
Traffic Incident Summary
Active as of:
Severity:
Category:
InformationThere was an issue retrieving the traffic information for this location. Please try a different location or try again shortly.
Advertisements
Track Severe Weather on mobile